Time;durP1;ratioP1;P1;durP2;ratioP2;P2;SDS_P1;SDS_P2;PMS_P1;PMS_P2;Temp;Humidity;BMP_temperature;BMP_pressure;BME280_temperature;BME280_humidity;BME280_pressure;Samples;Min_cycle;Max_cycle;Signal;HPM_P1;HPM_P2
2023/06/01 00:00:32;;;;;;;22.77;16.17;;;13.70;98.10;;;;;;6243389;23;20007;-73
2023/06/01 00:02:57;;;;;;;24.10;15.32;;;13.70;98.20;;;;;;6216505;23;20007;-72
2023/06/01 00:05:23;;;;;;;23.55;17.65;;;13.70;98.20;;;;;;6242975;23;20062;-72
2023/06/01 00:07:48;;;;;;;22.98;16.45;;;13.60;98.40;;;;;;6243749;23;20035;-72
2023/06/01 00:10:14;;;;;;;20.35;14.82;;;13.60;98.50;;;;;;6242836;23;20416;-72
2023/06/01 00:12:40;;;;;;;20.02;16.27;;;13.60;98.50;;;;;;6243511;23;20008;-72
2023/06/01 00:15:06;;;;;;;20.75;16.40;;;13.60;98.60;;;;;;6243316;23;20461;-73
2023/06/01 00:17:32;;;;;;;19.63;15.70;;;13.50;98.70;;;;;;6242560;23;20000;-72
2023/06/01 00:20:00;;;;;;;16.88;14.82;;;13.50;98.70;;;;;;6243258;23;20007;-73
2023/06/01 00:22:28;;;;;;;18.40;15.32;;;13.50;98.80;;;;;;6243241;23;20006;-72
2023/06/01 00:24:54;;;;;;;17.67;11.85;;;13.40;98.90;;;;;;6243375;23;20050;-72
2023/06/01 00:27:20;;;;;;;18.10;14.45;;;13.40;98.90;;;;;;6215897;23;20350;-72
2023/06/01 00:29:45;;;;;;;18.95;14.32;;;13.30;99.00;;;;;;6243349;23;19997;-73
2023/06/01 00:32:11;;;;;;;15.30;12.85;;;13.30;99.10;;;;;;6215330;23;20000;-72
2023/06/01 00:34:37;;;;;;;13.60;12.13;;;13.20;99.20;;;;;;6243237;23;20000;-72
2023/06/01 00:37:02;;;;;;;15.75;13.07;;;13.30;99.30;;;;;;6243121;23;20008;-72
2023/06/01 00:39:28;;;;;;;13.77;11.27;;;13.20;99.40;;;;;;6243051;23;20062;-72
2023/06/01 00:41:54;;;;;;;13.10;10.60;;;13.10;99.40;;;;;;6242736;23;20000;-73
2023/06/01 00:44:19;;;;;;;12.82;10.30;;;13.10;99.50;;;;;;6243035;23;20003;-72
2023/06/01 00:46:45;;;;;;;13.05;9.85;;;13.00;99.50;;;;;;6242336;23;20067;-73
2023/06/01 00:49:11;;;;;;;12.15;10.25;;;13.00;99.60;;;;;;6242625;23;20000;-72
2023/06/01 00:51:37;;;;;;;17.05;11.55;;;13.00;99.80;;;;;;6242268;23;20010;-72
2023/06/01 00:54:03;;;;;;;16.42;10.48;;;13.00;99.80;;;;;;6242622;23;20073;-72
2023/06/01 00:56:28;;;;;;;16.58;11.90;;;12.90;99.90;;;;;;6215723;23;20426;-72
2023/06/01 00:58:54;;;;;;;20.73;11.93;;;12.90;99.90;;;;;;6242877;23;20058;-72
2023/06/01 01:01:22;;;;;;;21.13;11.85;;;13.00;99.90;;;;;;6215041;23;20099;-72
2023/06/01 01:03:49;;;;;;;16.33;11.05;;;13.00;99.90;;;;;;6243022;23;20329;-72
2023/06/01 01:06:28;;;;;;;14.25;9.93;;;13.00;99.90;;;;;;6242506;23;19996;-72
2023/06/01 01:09:14;;;;;;;15.00;10.02;;;13.00;99.90;;;;;;6242694;23;20004;-72
2023/06/01 01:11:43;;;;;;;12.32;8.63;;;13.00;99.90;;;;;;6243045;23;20004;-73
2023/06/01 01:14:21;;;;;;;12.90;10.07;;;13.00;99.90;;;;;;6242255;23;20004;-72
2023/06/01 01:16:59;;;;;;;14.73;9.68;;;13.00;99.90;;;;;;6216021;23;20005;-71
2023/06/01 01:20:08;;;;;;;15.95;9.98;;;13.00;99.90;;;;;;6242917;23;20018;-72
2023/06/01 01:22:56;;;;;;;17.95;9.20;;;13.00;99.90;;;;;;6242895;23;19996;-71
2023/06/01 01:25:52;;;;;;;9.43;7.95;;;13.00;99.90;;;;;;6242457;23;20003;-71
2023/06/01 01:28:36;;;;;;;15.63;9.50;;;13.00;99.90;;;;;;6242536;23;20019;-71
2023/06/01 01:31:03;;;;;;;12.50;8.85;;;13.00;99.90;;;;;;6242841;23;19996;-72
2023/06/01 01:33:31;;;;;;;12.23;9.05;;;12.90;99.90;;;;;;6215701;23;20004;-71
2023/06/01 01:35:58;;;;;;;13.95;9.60;;;12.90;99.90;;;;;;6242809;23;20011;-74
2023/06/01 01:38:24;;;;;;;12.88;8.40;;;12.90;99.90;;;;;;6242480;23;20002;-72
2023/06/01 01:40:52;;;;;;;11.70;9.32;;;12.80;99.90;;;;;;6242683;23;20028;-72
2023/06/01 01:43:18;;;;;;;12.43;9.15;;;12.90;99.90;;;;;;6241865;23;20028;-72
2023/06/01 01:45:47;;;;;;;15.45;8.35;;;12.90;99.90;;;;;;6215800;23;20012;-71
2023/06/01 01:48:26;;;;;;;11.73;8.60;;;12.90;99.90;;;;;;6242328;23;20430;-72
2023/06/01 01:50:58;;;;;;;13.95;9.10;;;13.00;99.90;;;;;;6242875;23;20130;-72
2023/06/01 01:53:26;;;;;;;12.23;8.45;;;13.00;99.90;;;;;;6242500;23;20008;-72
2023/06/01 01:55:52;;;;;;;10.93;9.15;;;13.00;99.90;;;;;;6215784;23;20007;-72
2023/06/01 01:58:18;;;;;;;10.88;8.25;;;13.00;99.90;;;;;;6241298;23;20070;-72
2023/06/01 02:00:45;;;;;;;11.20;8.10;;;13.00;99.90;;;;;;6242847;23;20008;-73
2023/06/01 02:03:16;;;;;;;13.73;8.70;;;13.00;99.90;;;;;;6242340;23;20452;-72
2023/06/01 02:05:42;;;;;;;14.05;8.68;;;13.00;99.90;;;;;;6215779;23;20004;-73
2023/06/01 02:08:07;;;;;;;13.00;8.50;;;13.00;99.90;;;;;;6242466;23;20362;-72
2023/06/01 02:10:33;;;;;;;13.80;8.68;;;13.00;99.90;;;;;;6215554;23;20015;-72
2023/06/01 02:12:59;;;;;;;13.98;9.63;;;13.00;99.90;;;;;;6241998;23;19996;-72
2023/06/01 02:15:25;;;;;;;14.13;8.65;;;13.00;99.90;;;;;;6241840;23;20004;-72
2023/06/01 02:17:51;;;;;;;12.95;9.23;;;12.90;99.90;;;;;;6242303;23;20329;-72
2023/06/01 02:20:17;;;;;;;15.13;10.70;;;12.90;99.90;;;;;;6215299;23;20004;-72
2023/06/01 02:22:42;;;;;;;17.17;11.35;;;13.00;99.90;;;;;;6242604;23;20402;-72
2023/06/01 02:25:08;;;;;;;13.88;10.60;;;13.00;99.90;;;;;;6242443;23;20079;-72
2023/06/01 02:27:34;;;;;;;18.42;11.43;;;13.00;99.90;;;;;;6213857;23;20021;-73
2023/06/01 02:30:00;;;;;;;17.50;10.45;;;13.00;99.90;;;;;;6241234;23;20001;-73
2023/06/01 02:32:26;;;;;;;12.77;9.95;;;12.90;99.90;;;;;;6241590;23;20027;-72
2023/06/01 02:34:52;;;;;;;11.35;9.75;;;13.00;99.90;;;;;;6240811;23;20000;-72
2023/06/01 02:37:17;;;;;;;19.33;11.52;;;13.00;99.90;;;;;;6241031;23;19997;-72
2023/06/01 02:39:43;;;;;;;14.13;10.50;;;13.00;99.90;;;;;;6242537;23;20031;-72
2023/06/01 02:42:08;;;;;;;15.23;9.68;;;13.00;99.90;;;;;;6241621;23;20001;-72
2023/06/01 02:44:34;;;;;;;15.80;11.43;;;12.90;99.90;;;;;;6242206;23;20009;-73
2023/06/01 02:47:00;;;;;;;16.25;10.70;;;12.90;99.90;;;;;;6215482;23;20425;-72
2023/06/01 02:49:26;;;;;;;17.90;11.27;;;13.00;99.90;;;;;;6242052;23;19996;-72
2023/06/01 02:51:51;;;;;;;14.93;10.38;;;13.00;99.90;;;;;;6242568;23;20008;-72
2023/06/01 02:54:17;;;;;;;12.52;10.02;;;13.00;99.90;;;;;;6242087;23;20440;-72
2023/06/01 02:56:42;;;;;;;14.07;11.00;;;13.00;99.90;;;;;;6241736;23;20401;-73
2023/06/01 02:59:08;;;;;;;17.45;10.25;;;13.00;99.90;;;;;;6242253;23;20005;-72
2023/06/01 03:01:35;;;;;;;14.98;9.65;;;13.00;99.90;;;;;;6241904;23;20000;-72
2023/06/01 03:04:04;;;;;;;16.17;10.80;;;13.10;99.90;;;;;;6242357;23;20000;-72
2023/06/01 03:06:31;;;;;;;12.45;9.50;;;13.10;99.90;;;;;;6214980;23;20012;-73
2023/06/01 03:08:58;;;;;;;13.63;8.93;;;13.10;99.90;;;;;;6242180;23;20004;-72
2023/06/01 03:11:23;;;;;;;11.55;10.35;;;13.10;99.90;;;;;;6242184;23;20012;-72
2023/06/01 03:13:50;;;;;;;10.55;8.75;;;13.00;99.90;;;;;;6244152;23;20333;-72
2023/06/01 03:16:16;;;;;;;17.77;10.68;;;13.00;99.90;;;;;;6243573;23;20054;-72
2023/06/01 03:18:42;;;;;;;12.60;8.35;;;12.90;99.90;;;;;;6244180;23;20000;-72
2023/06/01 03:21:07;;;;;;;9.85;8.70;;;12.90;99.90;;;;;;6243853;23;19996;-72
2023/06/01 03:23:33;;;;;;;13.45;9.57;;;12.80;99.90;;;;;;6243807;23;20071;-72
2023/06/01 03:25:59;;;;;;;18.58;10.23;;;12.80;99.90;;;;;;6243114;23;19997;-72
2023/06/01 03:28:25;;;;;;;14.38;9.60;;;12.70;99.90;;;;;;6243804;23;20000;-72
2023/06/01 03:30:51;;;;;;;15.77;9.43;;;12.70;99.90;;;;;;6244064;23;20441;-72
2023/06/01 03:33:16;;;;;;;14.57;9.27;;;12.70;99.90;;;;;;6243748;23;20073;-72
2023/06/01 03:35:44;;;;;;;12.57;8.90;;;12.60;99.90;;;;;;6243914;23;20392;-72
2023/06/01 03:38:09;;;;;;;19.25;10.88;;;12.60;99.90;;;;;;6243765;23;20422;-72
2023/06/01 03:40:35;;;;;;;15.73;9.68;;;12.50;99.90;;;;;;6243080;23;19999;-72
2023/06/01 03:43:02;;;;;;;11.32;8.23;;;12.50;99.90;;;;;;6243878;23;20315;-72
2023/06/01 03:45:27;;;;;;;16.13;9.10;;;12.40;99.90;;;;;;6243634;23;20280;-72
2023/06/01 03:47:53;;;;;;;12.40;8.75;;;12.40;99.90;;;;;;6244008;23;20062;-72
2023/06/01 03:50:19;;;;;;;15.40;9.38;;;12.50;99.90;;;;;;6243413;23;20421;-72
2023/06/01 03:52:45;;;;;;;12.20;8.13;;;12.50;99.90;;;;;;6243798;23;20004;-72
2023/06/01 03:55:13;;;;;;;13.95;9.18;;;12.50;99.90;;;;;;6242887;23;20003;-72
2023/06/01 03:57:39;;;;;;;14.38;9.60;;;12.40;99.90;;;;;;6216765;23;20004;-72
2023/06/01 04:00:17;;;;;;;13.63;7.95;;;12.40;99.90;;;;;;6243481;23;20006;-72
2023/06/01 04:02:52;;;;;;;12.95;8.10;;;12.50;99.90;;;;;;6243901;23;20069;-72
2023/06/01 04:05:18;;;;;;;16.15;8.68;;;12.40;99.90;;;;;;6243359;23;19996;-72
2023/06/01 04:07:45;;;;;;;14.73;9.55;;;12.50;99.90;;;;;;6216947;23;20008;-72
2023/06/01 04:10:13;;;;;;;17.98;9.18;;;12.50;99.90;;;;;;6242803;23;20446;-72
2023/06/01 04:12:48;;;;;;;11.80;8.85;;;12.50;99.90;;;;;;6243699;23;20119;-72
2023/06/01 04:15:16;;;;;;;14.25;8.35;;;12.50;99.90;;;;;;6243241;23;20385;-73
2023/06/01 04:17:42;;;;;;;10.77;8.55;;;12.60;99.90;;;;;;6243424;23;20008;-72
2023/06/01 04:20:13;;;;;;;11.75;7.57;;;12.60;99.90;;;;;;6243336;23;20050;-73
2023/06/01 04:22:40;;;;;;;11.45;8.20;;;12.60;99.90;;;;;;6215835;23;20007;-73
2023/06/01 04:25:16;;;;;;;13.75;9.38;;;12.60;99.90;;;;;;6243411;23;20307;-73
2023/06/01 04:27:48;;;;;;;16.42;8.90;;;12.60;99.90;;;;;;6216214;23;20430;-72
2023/06/01 04:30:15;;;;;;;14.38;9.05;;;12.70;99.90;;;;;;6242990;23;20004;-73
2023/06/01 04:32:41;;;;;;;16.50;9.20;;;12.70;99.90;;;;;;6243017;23;20461;-72
2023/06/01 04:35:07;;;;;;;14.77;8.18;;;12.70;99.90;;;;;;6243239;23;20004;-72
2023/06/01 04:37:34;;;;;;;14.15;8.02;;;12.70;99.90;;;;;;6242370;23;20391;-73
2023/06/01 04:40:09;;;;;;;16.90;8.65;;;12.70;99.90;;;;;;6243131;23;20377;-72
2023/06/01 04:42:41;;;;;;;10.75;8.00;;;12.70;99.90;;;;;;6216044;23;20004;-73
2023/06/01 04:45:09;;;;;;;16.23;8.70;;;12.70;99.90;;;;;;6242617;23;20484;-73
2023/06/01 04:47:39;;;;;;;12.57;8.10;;;12.80;99.90;;;;;;6242875;23;20058;-73
2023/06/01 04:50:09;;;;;;;18.73;9.05;;;12.80;99.90;;;;;;6243141;23;20071;-73
2023/06/01 04:52:36;;;;;;;12.43;7.80;;;12.90;99.90;;;;;;6242433;23;20063;-72
2023/06/01 04:55:04;;;;;;;13.35;8.07;;;13.00;99.90;;;;;;6243169;23;20046;-73
2023/06/01 04:57:30;;;;;;;15.05;8.18;;;13.00;99.90;;;;;;6243029;23;20072;-72
2023/06/01 04:59:56;;;;;;;13.85;8.32;;;13.10;99.90;;;;;;6243065;23;19993;-73
2023/06/01 05:02:23;;;;;;;13.27;8.65;;;13.20;99.90;;;;;;6243183;23;20737;-73
2023/06/01 05:04:49;;;;;;;15.60;8.80;;;13.10;99.90;;;;;;6241732;23;20298;-73
2023/06/01 05:07:15;;;;;;;13.35;8.60;;;13.10;99.90;;;;;;6241595;23;20414;-72
2023/06/01 05:09:40;;;;;;;18.25;9.93;;;13.10;99.90;;;;;;6241480;23;20008;-72
2023/06/01 05:12:07;;;;;;;12.88;9.13;;;13.10;99.90;;;;;;6242799;23;20078;-72
2023/06/01 05:14:32;;;;;;;12.52;9.80;;;13.10;99.90;;;;;;6242598;23;20007;-72
2023/06/01 05:16:58;;;;;;;16.02;10.38;;;13.10;99.90;;;;;;6242700;23;20000;-72
2023/06/01 05:19:23;;;;;;;12.60;8.85;;;13.10;99.90;;;;;;6242151;23;20004;-72
2023/06/01 05:21:49;;;;;;;12.52;8.73;;;13.10;99.90;;;;;;6242642;23;20007;-72
2023/06/01 05:24:14;;;;;;;13.82;8.88;;;13.20;99.90;;;;;;6242127;23;20001;-72
2023/06/01 05:26:40;;;;;;;17.15;8.75;;;13.30;99.90;;;;;;6242636;23;20016;-72
2023/06/01 05:29:06;;;;;;;14.23;9.80;;;13.40;99.90;;;;;;6242317;23;20007;-72
2023/06/01 05:31:31;;;;;;;15.80;9.15;;;13.40;99.90;;;;;;6242439;23;20004;-72
2023/06/01 05:33:57;;;;;;;13.30;8.07;;;13.40;99.90;;;;;;6241906;23;20066;-72
2023/06/01 05:36:22;;;;;;;13.63;9.93;;;13.50;99.90;;;;;;6241797;23;20012;-73
2023/06/01 05:38:48;;;;;;;15.75;9.80;;;13.60;99.90;;;;;;6242652;23;20012;-72
2023/06/01 05:41:14;;;;;;;13.98;8.73;;;13.60;99.60;;;;;;6242297;23;20004;-73
2023/06/01 05:43:39;;;;;;;14.52;10.10;;;13.70;99.50;;;;;;6242812;23;20000;-73
2023/06/01 05:46:06;;;;;;;14.63;9.32;;;13.80;99.40;;;;;;6242802;23;20003;-72
2023/06/01 05:48:32;;;;;;;19.20;10.07;;;13.80;99.20;;;;;;6242408;23;20141;-73
2023/06/01 05:50:57;;;;;;;13.32;9.05;;;13.80;99.10;;;;;;6242371;23;20448;-72
2023/06/01 05:53:24;;;;;;;15.75;9.02;;;13.80;99.00;;;;;;6242253;23;20042;-73
2023/06/01 05:55:51;;;;;;;16.42;10.20;;;13.80;98.90;;;;;;6242506;23;20038;-73
2023/06/01 05:58:17;;;;;;;13.30;9.85;;;13.90;98.70;;;;;;6242012;23;20075;-72
2023/06/01 06:00:42;;;;;;;14.30;8.93;;;13.90;98.70;;;;;;6242485;23;20377;-72
2023/06/01 06:03:08;;;;;;;15.52;9.82;;;13.90;98.50;;;;;;6242224;23;20072;-72
2023/06/01 06:05:34;;;;;;;14.98;10.18;;;13.90;98.40;;;;;;6241436;23;20001;-72
2023/06/01 06:07:59;;;;;;;13.52;8.73;;;13.90;98.40;;;;;;6242292;23;20078;-72
2023/06/01 06:10:25;;;;;;;13.60;8.90;;;13.90;98.50;;;;;;6241806;23;20004;-71
2023/06/01 06:12:50;;;;;;;17.27;10.30;;;14.00;98.50;;;;;;6242031;23;20004;-72
2023/06/01 06:15:16;;;;;;;16.80;9.65;;;14.00;98.30;;;;;;6241712;23;20491;-72
2023/06/01 06:17:42;;;;;;;14.35;8.73;;;14.00;98.10;;;;;;6241877;23;20059;-72
2023/06/01 06:20:09;;;;;;;13.25;8.40;;;14.00;98.00;;;;;;6214420;23;20000;-72
2023/06/01 06:22:35;;;;;;;15.38;10.18;;;14.10;97.90;;;;;;6242281;23;20079;-72
2023/06/01 06:25:01;;;;;;;16.13;8.93;;;14.00;97.80;;;;;;6242497;23;20005;-72
2023/06/01 06:27:26;;;;;;;13.35;9.02;;;14.00;97.70;;;;;;6241399;23;20303;-72
2023/06/01 06:29:52;;;;;;;17.75;9.80;;;14.00;97.60;;;;;;6241819;23;20000;-72
2023/06/01 06:32:19;;;;;;;12.43;9.52;;;14.10;97.70;;;;;;6214390;23;20000;-72
2023/06/01 06:34:45;;;;;;;14.85;8.60;;;14.20;97.80;;;;;;6241190;23;20000;-72
2023/06/01 06:37:11;;;;;;;14.15;9.07;;;14.30;97.70;;;;;;6241184;23;20008;-72
2023/06/01 06:39:37;;;;;;;12.65;9.15;;;14.50;97.50;;;;;;6242098;23;20008;-72
2023/06/01 06:42:03;;;;;;;18.92;9.30;;;14.70;97.40;;;;;;6241544;23;20009;-71
2023/06/01 06:44:29;;;;;;;14.90;8.60;;;14.90;97.00;;;;;;6240553;23;20368;-72
2023/06/01 06:46:55;;;;;;;13.82;9.07;;;15.00;96.80;;;;;;6243609;23;19996;-71
2023/06/01 06:49:20;;;;;;;17.23;9.73;;;15.00;96.10;;;;;;6242829;23;20007;-72
2023/06/01 06:51:46;;;;;;;15.10;8.50;;;14.90;96.20;;;;;;6243959;23;20005;-72
2023/06/01 06:54:12;;;;;;;14.02;9.15;;;14.80;96.00;;;;;;6216557;23;20015;-72
2023/06/01 06:56:37;;;;;;;14.77;8.23;;;14.70;96.20;;;;;;6243601;23;20012;-72
2023/06/01 06:59:03;;;;;;;13.88;9.35;;;14.70;96.20;;;;;;6238842;23;20016;-72
2023/06/01 07:01:29;;;;;;;11.55;8.43;;;14.60;96.20;;;;;;6243352;23;20008;-72
2023/06/01 07:03:55;;;;;;;12.35;7.97;;;14.60;96.40;;;;;;6241163;23;20003;-72
2023/06/01 07:06:22;;;;;;;12.05;7.85;;;14.60;96.30;;;;;;6241504;23;20002;-71
2023/06/01 07:08:48;;;;;;;14.27;8.70;;;14.60;96.30;;;;;;6241690;23;20075;-72
2023/06/01 07:11:14;;;;;;;11.52;8.43;;;14.60;96.30;;;;;;6240847;23;20055;-72
2023/06/01 07:13:39;;;;;;;13.40;7.15;;;14.70;96.20;;;;;;6242732;23;20079;-71
2023/06/01 07:16:05;;;;;;;15.50;8.45;;;14.80;96.10;;;;;;6242101;23;20280;-72
2023/06/01 07:18:31;;;;;;;12.43;7.47;;;14.80;95.90;;;;;;6241186;23;20012;-72
2023/06/01 07:20:58;;;;;;;10.68;7.15;;;14.70;95.80;;;;;;6242339;23;20004;-72
2023/06/01 07:23:23;;;;;;;11.90;7.57;;;14.70;95.80;;;;;;6243065;23;20011;-71
2023/06/01 07:25:49;;;;;;;14.98;7.97;;;14.60;95.80;;;;;;6243245;23;20000;-72
2023/06/01 07:28:15;;;;;;;15.13;8.05;;;14.50;95.80;;;;;;6242659;23;20341;-71
2023/06/01 07:30:41;;;;;;;13.40;7.28;;;14.50;96.00;;;;;;6241260;23;20079;-72
2023/06/01 07:33:07;;;;;;;12.65;8.55;;;14.50;95.90;;;;;;6242509;23;19996;-72
2023/06/01 07:35:33;;;;;;;15.00;7.57;;;14.50;95.90;;;;;;6242654;23;20381;-72
2023/06/01 07:37:59;;;;;;;15.63;8.18;;;14.40;96.10;;;;;;6214783;23;20055;-74
2023/06/01 07:40:25;;;;;;;11.68;7.75;;;14.50;96.40;;;;;;6241226;23;20000;-72
2023/06/01 07:42:50;;;;;;;18.38;9.77;;;14.50;96.10;;;;;;6242479;23;20122;-72
2023/06/01 07:45:17;;;;;;;13.75;8.30;;;14.60;96.20;;;;;;6241623;23;20417;-72
2023/06/01 07:47:42;;;;;;;14.02;7.80;;;14.70;96.30;;;;;;6215141;23;20019;-72
2023/06/01 07:50:08;;;;;;;14.57;8.18;;;14.80;96.10;;;;;;6215039;23;19996;-72
2023/06/01 07:52:34;;;;;;;11.15;6.95;;;14.90;96.00;;;;;;6241613;23;19992;-72
2023/06/01 07:54:59;;;;;;;12.30;8.43;;;15.00;95.80;;;;;;6243003;23;20054;-71
2023/06/01 07:57:25;;;;;;;13.55;7.40;;;15.10;95.60;;;;;;6241950;23;19996;-72
2023/06/01 07:59:51;;;;;;;8.60;6.97;;;15.20;95.50;;;;;;6242982;23;20000;-72
2023/06/01 08:02:16;;;;;;;12.50;7.25;;;15.30;95.50;;;;;;6240400;23;20060;-72
2023/06/01 08:04:44;;;;;;;13.30;7.72;;;15.40;95.20;;;;;;6242448;23;20011;-72
2023/06/01 08:07:09;;;;;;;9.45;7.35;;;15.50;94.70;;;;;;6242574;23;20000;-73
2023/06/01 08:09:37;;;;;;;11.32;6.78;;;15.50;94.50;;;;;;6242898;23;20026;-73
2023/06/01 08:12:03;;;;;;;11.25;6.85;;;15.50;94.40;;;;;;6214044;23;20186;-72
2023/06/01 08:14:28;;;;;;;13.10;7.40;;;15.50;94.30;;;;;;6240413;23;20032;-72
2023/06/01 08:16:54;;;;;;;9.75;7.93;;;15.40;94.20;;;;;;6242258;23;20008;-73
2023/06/01 08:19:19;;;;;;;11.20;7.10;;;15.40;94.30;;;;;;6241685;23;20004;-72
2023/06/01 08:21:45;;;;;;;16.65;7.03;;;15.50;94.20;;;;;;6243073;23;20367;-72
2023/06/01 08:24:13;;;;;;;11.13;7.13;;;15.50;94.20;;;;;;6240788;23;20008;-73
2023/06/01 08:26:39;;;;;;;15.07;7.63;;;15.60;94.20;;;;;;6242525;23;20019;-72
2023/06/01 08:29:05;;;;;;;11.77;7.65;;;15.70;94.10;;;;;;6242143;23;20375;-71
2023/06/01 08:31:30;;;;;;;8.90;7.13;;;15.80;93.90;;;;;;6215614;23;20004;-72
2023/06/01 08:33:56;;;;;;;9.43;7.68;;;15.80;93.80;;;;;;6242632;23;20099;-72
2023/06/01 08:36:22;;;;;;;10.10;7.15;;;15.90;93.90;;;;;;6241016;23;20322;-72
2023/06/01 08:38:48;;;;;;;9.77;6.68;;;16.00;93.70;;;;;;6215483;23;20008;-72
2023/06/01 08:41:25;;;;;;;10.30;6.80;;;16.10;93.80;;;;;;6241213;23;20008;-71
2023/06/01 08:43:58;;;;;;;11.40;6.90;;;16.20;93.70;;;;;;6240643;23;20008;-72
2023/06/01 08:46:26;;;;;;;18.13;7.23;;;16.40;93.50;;;;;;6238955;23;19996;-72
2023/06/01 08:48:55;;;;;;;12.48;6.97;;;16.40;93.20;;;;;;6240495;23;20235;-72
2023/06/01 08:51:25;;;;;;;10.38;5.63;;;16.40;93.10;;;;;;6240907;23;20342;-72
2023/06/01 08:53:52;;;;;;;9.00;5.90;;;16.50;93.00;;;;;;6213948;23;20415;-72
2023/06/01 08:56:18;;;;;;;10.30;6.68;;;16.60;92.50;;;;;;6214180;23;20012;-71
2023/06/01 08:58:45;;;;;;;11.27;7.15;;;16.60;92.20;;;;;;6240597;23;20004;-72
2023/06/01 09:01:21;;;;;;;10.10;6.60;;;16.60;92.20;;;;;;6242078;23;20071;-72
2023/06/01 09:03:48;;;;;;;11.15;7.05;;;16.60;91.90;;;;;;6242707;23;20006;-72
2023/06/01 09:06:14;;;;;;;8.30;6.30;;;16.70;91.70;;;;;;6241566;23;20083;-72
2023/06/01 09:08:39;;;;;;;10.65;7.28;;;16.70;91.70;;;;;;6240391;23;20465;-71
2023/06/01 09:11:05;;;;;;;11.45;6.32;;;16.80;91.60;;;;;;6215242;23;20453;-72
2023/06/01 09:13:38;;;;;;;11.48;6.28;;;16.80;91.40;;;;;;6241189;23;20007;-72
2023/06/01 09:16:05;;;;;;;9.13;5.97;;;16.90;91.40;;;;;;6242320;23;20007;-72
2023/06/01 09:18:31;;;;;;;12.45;6.55;;;17.00;91.50;;;;;;6240281;23;20008;-72
2023/06/01 09:21:13;;;;;;;7.85;6.03;;;17.10;91.40;;;;;;6242012;23;20365;-71
2023/06/01 09:23:41;;;;;;;8.02;6.60;;;17.30;91.30;;;;;;6242297;23;20429;-72
2023/06/01 09:26:11;;;;;;;10.52;5.18;;;17.30;90.80;;;;;;6241397;23;20437;-72
2023/06/01 09:28:55;;;;;;;8.65;5.68;;;17.30;90.70;;;;;;6240842;23;20003;-73
2023/06/01 09:31:39;;;;;;;7.97;5.22;;;17.30;90.50;;;;;;6241832;23;20429;-72
2023/06/01 09:34:05;;;;;;;7.57;5.25;;;17.30;90.70;;;;;;6242172;23;20023;-71
2023/06/01 09:36:32;;;;;;;9.55;5.82;;;17.30;90.40;;;;;;6242132;23;20008;-71
2023/06/01 09:39:09;;;;;;;10.38;6.57;;;17.40;90.40;;;;;;6213758;23;20088;-72
2023/06/01 09:41:50;;;;;;;9.05;5.07;;;17.50;90.30;;;;;;6239485;23;20012;-72
2023/06/01 09:44:29;;;;;;;9.95;6.28;;;17.60;90.30;;;;;;6241718;23;20337;-72
2023/06/01 09:47:01;;;;;;;10.82;5.80;;;17.80;90.10;;;;;;6242153;23;20000;-72
2023/06/01 09:49:29;;;;;;;10.40;6.05;;;17.80;90.20;;;;;;6241300;23;20000;-72
2023/06/01 09:52:14;;;;;;;10.27;5.53;;;18.00;89.70;;;;;;6240280;23;20298;-72
2023/06/01 09:54:45;;;;;;;13.63;6.00;;;18.10;89.50;;;;;;6241560;23;20334;-72
2023/06/01 09:57:12;;;;;;;7.20;5.15;;;18.10;88.90;;;;;;6240720;23;19996;-72
2023/06/01 09:59:45;;;;;;;7.07;4.78;;;18.10;88.70;;;;;;6241452;23;20413;-72
2023/06/01 10:02:14;;;;;;;9.05;5.82;;;18.10;89.30;;;;;;6239476;23;20007;-72
2023/06/01 10:04:41;;;;;;;7.43;5.32;;;18.20;89.40;;;;;;6241772;23;20372;-72
2023/06/01 10:07:10;;;;;;;12.02;5.53;;;18.30;89.10;;;;;;6241879;23;20149;-72
2023/06/01 10:09:38;;;;;;;7.68;4.45;;;18.30;88.50;;;;;;6242024;23;20004;-72
2023/06/01 10:12:05;;;;;;;10.00;4.70;;;18.40;88.20;;;;;;6213633;23;20011;-72
2023/06/01 10:14:31;;;;;;;7.78;5.07;;;18.40;87.70;;;;;;6240836;23;20096;-72
2023/06/01 10:16:58;;;;;;;8.85;4.38;;;18.40;88.00;;;;;;6215202;23;20430;-72
2023/06/01 10:19:23;;;;;;;9.25;4.70;;;18.60;87.50;;;;;;6241322;23;20004;-72
2023/06/01 10:21:50;;;;;;;10.40;5.13;;;18.70;86.90;;;;;;6241902;23;20031;-72
2023/06/01 10:24:17;;;;;;;7.30;4.25;;;18.70;86.20;;;;;;6240120;23;20075;-72
2023/06/01 10:26:49;;;;;;;10.70;4.50;;;18.70;85.80;;;;;;6241318;23;20027;-72
2023/06/01 10:29:18;;;;;;;8.90;4.57;;;18.60;85.90;;;;;;6214082;23;20376;-72
2023/06/01 10:31:44;;;;;;;6.53;4.07;;;18.70;85.30;;;;;;6240900;23;20004;-72
2023/06/01 10:34:12;;;;;;;8.18;4.35;;;18.70;85.30;;;;;;6240575;23;20090;-70
2023/06/01 10:36:53;;;;;;;7.35;4.32;;;18.80;85.90;;;;;;6240325;23;20067;-70
2023/06/01 10:39:25;;;;;;;5.82;4.35;;;19.00;85.60;;;;;;6241011;23;20433;-71
2023/06/01 10:41:51;;;;;;;5.30;3.93;;;19.00;83.90;;;;;;6212555;23;20178;-73
2023/06/01 10:44:39;;;;;;;7.32;4.50;;;18.90;83.50;;;;;;6214307;23;20224;-72
2023/06/01 10:47:05;;;;;;;7.97;4.85;;;19.00;83.80;;;;;;6212909;23;20004;-72
2023/06/01 10:49:49;;;;;;;7.65;3.95;;;19.00;83.20;;;;;;6241153;23;20346;-73
2023/06/01 10:52:32;;;;;;;7.03;4.55;;;19.10;83.80;;;;;;6241117;23;20004;-74
2023/06/01 10:55:20;;;;;;;9.57;4.78;;;19.20;83.60;;;;;;6240405;23;20007;-73
2023/06/01 10:57:46;;;;;;;6.95;3.88;;;19.20;83.00;;;;;;6240925;23;20031;-73
2023/06/01 11:00:28;;;;;;;6.00;4.38;;;19.20;83.00;;;;;;6240358;23;20004;-72
2023/06/01 11:03:02;;;;;;;9.63;5.72;;;19.20;83.20;;;;;;6240645;23;20311;-73
2023/06/01 11:05:42;;;;;;;7.28;4.38;;;19.30;82.40;;;;;;6241421;23;20008;-71
2023/06/01 11:08:29;;;;;;;12.68;4.68;;;19.30;82.10;;;;;;6239757;23;20012;-70
2023/06/01 11:10:56;;;;;;;5.38;4.05;;;19.30;81.60;;;;;;6241266;23;20027;-70
2023/06/01 11:13:35;;;;;;;7.07;4.82;;;19.30;81.20;;;;;;6240993;23;20012;-70
2023/06/01 11:16:04;;;;;;;8.82;4.28;;;19.30;80.60;;;;;;6214419;23;20492;-70
2023/06/01 11:18:49;;;;;;;9.10;4.97;;;19.30;79.70;;;;;;6239525;23;20005;-71
2023/06/01 11:21:18;;;;;;;11.07;5.10;;;19.20;80.00;;;;;;6239012;23;20448;-70
2023/06/01 11:23:45;;;;;;;11.00;4.65;;;19.20;80.50;;;;;;6240687;23;20157;-70
2023/06/01 11:26:33;;;;;;;8.25;4.65;;;19.10;80.40;;;;;;6213006;23;20035;-70
2023/06/01 11:29:15;;;;;;;7.28;4.63;;;19.20;81.20;;;;;;6210828;23;20020;-70
2023/06/01 11:31:46;;;;;;;10.18;4.60;;;19.20;80.40;;;;;;6241194;23;20000;-70
2023/06/01 11:34:13;;;;;;;7.82;4.72;;;19.30;79.90;;;;;;6242340;23;19997;-72
2023/06/01 11:36:47;;;;;;;10.82;4.38;;;19.40;79.40;;;;;;6243108;23;20330;-70
2023/06/01 11:39:20;;;;;;;9.52;4.72;;;19.40;79.60;;;;;;6211032;23;20014;-71
2023/06/01 11:41:50;;;;;;;10.43;5.03;;;19.40;79.70;;;;;;6241269;23;20004;-70
2023/06/01 11:44:16;;;;;;;9.00;5.00;;;19.40;79.90;;;;;;6241888;23;20000;-71
2023/06/01 11:46:52;;;;;;;9.45;5.30;;;19.40;80.30;;;;;;6242911;23;20000;-70
2023/06/01 11:49:18;;;;;;;9.88;5.13;;;19.50;79.70;;;;;;6242211;23;20027;-70
2023/06/01 11:51:44;;;;;;;10.05;4.80;;;19.50;79.50;;;;;;6241632;23;20023;-70
2023/06/01 11:54:09;;;;;;;10.70;4.90;;;19.50;79.60;;;;;;6242258;23;20004;-70
2023/06/01 11:56:36;;;;;;;6.70;4.78;;;19.60;79.40;;;;;;6243086;23;20134;-70
2023/06/01 11:59:12;;;;;;;10.77;6.60;;;19.60;79.20;;;;;;6242361;23;20004;-71
2023/06/01 12:01:46;;;;;;;7.78;5.07;;;19.60;79.20;;;;;;6239984;23;20330;-70
2023/06/01 12:04:22;;;;;;;;;;;19.70;80.00;;;;;;6242476;23;19996;-69
2023/06/01 12:06:49;;;;;;;7.72;5.32;;;19.70;80.00;;;;;;6241091;23;19981;-70
2023/06/01 12:09:16;;;;;;;10.27;5.57;;;19.80;79.70;;;;;;6241325;23;20173;-70
2023/06/01 12:11:44;;;;;;;8.57;5.40;;;19.80;79.60;;;;;;6240143;23;20008;-70
2023/06/01 12:14:10;;;;;;;10.40;5.45;;;19.80;79.20;;;;;;6240679;23;20402;-70
2023/06/01 12:16:57;;;;;;;8.93;5.22;;;19.80;78.80;;;;;;6241021;23;20039;-69
2023/06/01 12:19:23;;;;;;;8.80;6.00;;;19.80;78.70;;;;;;6241163;23;20054;-71
2023/06/01 12:21:50;;;;;;;8.77;5.28;;;19.90;78.40;;;;;;6242119;23;20000;-71
2023/06/01 12:24:27;;;;;;;8.45;5.78;;;19.90;77.80;;;;;;6240588;23;20000;-71
2023/06/01 12:26:52;;;;;;;5.63;4.00;;;20.00;77.60;;;;;;6242498;23;20422;-71
2023/06/01 12:29:34;;;;;;;7.75;4.63;;;20.00;77.60;;;;;;6242531;23;19997;-69
2023/06/01 12:31:59;;;;;;;8.50;4.63;;;20.00;77.50;;;;;;6240836;23;20322;-69
2023/06/01 12:34:25;;;;;;;9.13;4.30;;;20.00;77.50;;;;;;6239993;23;20000;-69
2023/06/01 12:36:50;;;;;;;8.80;5.22;;;20.20;77.80;;;;;;6241955;23;20075;-69
2023/06/01 12:39:36;;;;;;;10.05;4.65;;;20.20;76.80;;;;;;6241484;23;20016;-68
2023/06/01 12:42:02;;;;;;;6.88;4.60;;;20.20;76.50;;;;;;6242305;23;20020;-70
2023/06/01 12:44:28;;;;;;;7.15;4.70;;;20.20;76.40;;;;;;6239702;23;20296;-69